sensor_id;sensor_type;location;lat;lon;timestamp;temperature;humidity
16867;DHT22;8550;52.596;13.320;2023-04-25T00:04:53;9.40;99.90
16867;DHT22;8550;52.596;13.320;2023-04-25T00:10:00;9.50;99.90
16867;DHT22;8550;52.596;13.320;2023-04-25T00:15:02;9.50;99.90
16867;DHT22;8550;52.596;13.320;2023-04-25T00:20:05;9.50;99.90
16867;DHT22;8550;52.596;13.320;2023-04-25T00:25:10;9.50;99.90
16867;DHT22;8550;52.596;13.320;2023-04-25T00:30:13;9.50;99.90
16867;DHT22;8550;52.596;13.320;2023-04-25T00:35:15;9.50;99.90
16867;DHT22;8550;52.596;13.320;2023-04-25T00:40:18;9.40;99.90
16867;DHT22;8550;52.596;13.320;2023-04-25T00:45:20;9.40;99.90
16867;DHT22;8550;52.596;13.320;2023-04-25T00:50:23;9.40;99.90
16867;DHT22;8550;52.596;13.320;2023-04-25T00:55:26;9.40;99.90
16867;DHT22;8550;52.596;13.320;2023-04-25T01:00:28;9.30;99.90
16867;DHT22;8550;52.596;13.320;2023-04-25T01:05:31;9.30;99.90
16867;DHT22;8550;52.596;13.320;2023-04-25T01:10:35;9.30;99.90
16867;DHT22;8550;52.596;13.320;2023-04-25T01:15:37;9.20;99.90
16867;DHT22;8550;52.596;13.320;2023-04-25T01:20:39;9.20;99.90
16867;DHT22;8550;52.596;13.320;2023-04-25T01:25:45;9.30;99.90
16867;DHT22;8550;52.596;13.320;2023-04-25T01:30:47;9.20;99.90
16867;DHT22;8550;52.596;13.320;2023-04-25T01:35:49;9.30;99.90
16867;DHT22;8550;52.596;13.320;2023-04-25T01:40:53;9.20;99.90
16867;DHT22;8550;52.596;13.320;2023-04-25T01:45:56;9.20;99.90
16867;DHT22;8550;52.596;13.320;2023-04-25T01:50:58;9.20;99.90
16867;DHT22;8550;52.596;13.320;2023-04-25T01:56:02;9.20;99.90
16867;DHT22;8550;52.596;13.320;2023-04-25T02:01:04;9.10;99.90
16867;DHT22;8550;52.596;13.320;2023-04-25T02:06:06;9.10;99.90
16867;DHT22;8550;52.596;13.320;2023-04-25T02:11:09;9.10;99.90
16867;DHT22;8550;52.596;13.320;2023-04-25T02:16:11;9.10;99.90
16867;DHT22;8550;52.596;13.320;2023-04-25T02:21:13;9.10;99.90
16867;DHT22;8550;52.596;13.320;2023-04-25T02:26:17;9.00;99.90
16867;DHT22;8550;52.596;13.320;2023-04-25T02:31:19;9.00;99.90
16867;DHT22;8550;52.596;13.320;2023-04-25T02:36:21;9.00;99.90
16867;DHT22;8550;52.596;13.320;2023-04-25T02:41:24;9.00;99.90
16867;DHT22;8550;52.596;13.320;2023-04-25T02:46:26;9.00;99.90
16867;DHT22;8550;52.596;13.320;2023-04-25T02:51:28;9.00;99.90
16867;DHT22;8550;52.596;13.320;2023-04-25T02:56:32;9.00;99.90
16867;DHT22;8550;52.596;13.320;2023-04-25T03:01:34;9.00;99.90
16867;DHT22;8550;52.596;13.320;2023-04-25T03:06:35;9.00;99.90
16867;DHT22;8550;52.596;13.320;2023-04-25T03:11:39;9.00;99.90
16867;DHT22;8550;52.596;13.320;2023-04-25T03:16:41;8.90;99.90
16867;DHT22;8550;52.596;13.320;2023-04-25T03:21:43;8.90;99.90
16867;DHT22;8550;52.596;13.320;2023-04-25T03:26:47;9.00;99.90
16867;DHT22;8550;52.596;13.320;2023-04-25T03:31:48;9.00;99.90
16867;DHT22;8550;52.596;13.320;2023-04-25T03:36:50;8.90;99.90
16867;DHT22;8550;52.596;13.320;2023-04-25T03:41:54;8.90;99.90
16867;DHT22;8550;52.596;13.320;2023-04-25T03:46:56;8.90;99.90
16867;DHT22;8550;52.596;13.320;2023-04-25T03:51:57;8.90;99.90
16867;DHT22;8550;52.596;13.320;2023-04-25T03:57:02;8.80;99.90
16867;DHT22;8550;52.596;13.320;2023-04-25T04:02:04;8.80;99.90
16867;DHT22;8550;52.596;13.320;2023-04-25T04:07:06;8.80;99.90
16867;DHT22;8550;52.596;13.320;2023-04-25T04:12:09;8.80;99.90
16867;DHT22;8550;52.596;13.320;2023-04-25T04:17:11;8.90;99.90
16867;DHT22;8550;52.596;13.320;2023-04-25T04:22:14;8.80;99.90
16867;DHT22;8550;52.596;13.320;2023-04-25T04:27:17;8.80;99.90
16867;DHT22;8550;52.596;13.320;2023-04-25T04:32:19;8.80;99.90
16867;DHT22;8550;52.596;13.320;2023-04-25T04:37:21;8.90;99.90
16867;DHT22;8550;52.596;13.320;2023-04-25T04:42:24;8.80;99.90
16867;DHT22;8550;52.596;13.320;2023-04-25T04:47:27;8.90;99.90
16867;DHT22;8550;52.596;13.320;2023-04-25T04:52:31;8.90;99.90
16867;DHT22;8550;52.596;13.320;2023-04-25T04:57:34;8.90;99.90
16867;DHT22;8550;52.596;13.320;2023-04-25T05:02:37;9.00;99.90
16867;DHT22;8550;52.596;13.320;2023-04-25T05:07:39;9.00;99.90
16867;DHT22;8550;52.596;13.320;2023-04-25T05:12:43;9.10;99.90
16867;DHT22;8550;52.596;13.320;2023-04-25T05:17:45;9.20;99.90
16867;DHT22;8550;52.596;13.320;2023-04-25T05:22:47;9.10;99.90
16867;DHT22;8550;52.596;13.320;2023-04-25T05:27:50;9.10;99.90
16867;DHT22;8550;52.596;13.320;2023-04-25T05:32:52;9.10;99.90
16867;DHT22;8550;52.596;13.320;2023-04-25T05:37:54;9.20;99.90
16867;DHT22;8550;52.596;13.320;2023-04-25T05:42:59;9.20;99.90
16867;DHT22;8550;52.596;13.320;2023-04-25T05:48:01;9.10;99.90
16867;DHT22;8550;52.596;13.320;2023-04-25T05:53:03;9.20;99.90
16867;DHT22;8550;52.596;13.320;2023-04-25T05:58:07;9.20;99.90
16867;DHT22;8550;52.596;13.320;2023-04-25T06:03:09;9.20;99.90
16867;DHT22;8550;52.596;13.320;2023-04-25T06:08:19;9.40;99.90
16867;DHT22;8550;52.596;13.320;2023-04-25T06:13:23;9.40;99.90
16867;DHT22;8550;52.596;13.320;2023-04-25T06:18:25;9.50;99.90
16867;DHT22;8550;52.596;13.320;2023-04-25T06:23:27;9.30;99.90
16867;DHT22;8550;52.596;13.320;2023-04-25T06:28:30;9.20;99.90
16867;DHT22;8550;52.596;13.320;2023-04-25T06:33:32;9.10;99.90
16867;DHT22;8550;52.596;13.320;2023-04-25T06:38:35;9.10;99.90
16867;DHT22;8550;52.596;13.320;2023-04-25T06:43:38;9.10;99.90
16867;DHT22;8550;52.596;13.320;2023-04-25T06:48:40;9.20;99.90
16867;DHT22;8550;52.596;13.320;2023-04-25T06:53:42;9.30;99.90
16867;DHT22;8550;52.596;13.320;2023-04-25T06:58:45;9.20;99.90
16867;DHT22;8550;52.596;13.320;2023-04-25T07:03:49;9.10;99.90
16867;DHT22;8550;52.596;13.320;2023-04-25T07:08:51;9.00;99.90
16867;DHT22;8550;52.596;13.320;2023-04-25T07:13:54;9.00;99.90
16867;DHT22;8550;52.596;13.320;2023-04-25T07:18:56;9.20;99.90
16867;DHT22;8550;52.596;13.320;2023-04-25T07:23:59;9.20;99.90
16867;DHT22;8550;52.596;13.320;2023-04-25T07:29:09;9.50;99.90
16867;DHT22;8550;52.596;13.320;2023-04-25T07:34:11;9.50;99.90
16867;DHT22;8550;52.596;13.320;2023-04-25T07:39:13;9.40;99.90
16867;DHT22;8550;52.596;13.320;2023-04-25T07:44:16;9.50;99.90
16867;DHT22;8550;52.596;13.320;2023-04-25T07:49:18;9.60;99.90
16867;DHT22;8550;52.596;13.320;2023-04-25T07:54:20;9.70;99.90
16867;DHT22;8550;52.596;13.320;2023-04-25T07:59:24;10.00;99.90
16867;DHT22;8550;52.596;13.320;2023-04-25T08:04:26;10.30;99.90
16867;DHT22;8550;52.596;13.320;2023-04-25T08:09:28;10.90;99.90
16867;DHT22;8550;52.596;13.320;2023-04-25T08:14:35;10.60;99.90
16867;DHT22;8550;52.596;13.320;2023-04-25T08:19:39;10.50;99.90
16867;DHT22;8550;52.596;13.320;2023-04-25T08:24:41;10.30;99.90
16867;DHT22;8550;52.596;13.320;2023-04-25T08:29:44;10.00;99.90
16867;DHT22;8550;52.596;13.320;2023-04-25T08:34:47;10.10;99.90
16867;DHT22;8550;52.596;13.320;2023-04-25T08:39:50;10.10;99.90
16867;DHT22;8550;52.596;13.320;2023-04-25T08:45:01;10.40;99.90
16867;DHT22;8550;52.596;13.320;2023-04-25T08:50:06;10.90;99.90
16867;DHT22;8550;52.596;13.320;2023-04-25T08:55:09;11.20;99.90
16867;DHT22;8550;52.596;13.320;2023-04-25T09:00:13;11.30;99.90
16867;DHT22;8550;52.596;13.320;2023-04-25T09:05:15;11.20;99.90
16867;DHT22;8550;52.596;13.320;2023-04-25T09:10:18;10.90;99.90
16867;DHT22;8550;52.596;13.320;2023-04-25T09:15:21;10.90;99.90
16867;DHT22;8550;52.596;13.320;2023-04-25T09:20:23;11.10;99.90
16867;DHT22;8550;52.596;13.320;2023-04-25T09:25:26;11.20;99.70
16867;DHT22;8550;52.596;13.320;2023-04-25T09:30:34;11.50;98.70
16867;DHT22;8550;52.596;13.320;2023-04-25T09:35:37;12.00;95.50
16867;DHT22;8550;52.596;13.320;2023-04-25T09:40:40;11.90;93.80
16867;DHT22;8550;52.596;13.320;2023-04-25T09:45:44;11.50;94.10
16867;DHT22;8550;52.596;13.320;2023-04-25T09:51:04;11.60;94.50
16867;DHT22;8550;52.596;13.320;2023-04-25T09:56:09;12.00;93.80
16867;DHT22;8550;52.596;13.320;2023-04-25T10:01:13;11.50;93.20
16867;DHT22;8550;52.596;13.320;2023-04-25T10:06:19;11.20;92.70
16867;DHT22;8550;52.596;13.320;2023-04-25T10:11:22;11.80;92.60
16867;DHT22;8550;52.596;13.320;2023-04-25T10:16:28;12.10;92.00
16867;DHT22;8550;52.596;13.320;2023-04-25T10:21:32;12.30;92.00
16867;DHT22;8550;52.596;13.320;2023-04-25T10:26:35;11.90;91.30
16867;DHT22;8550;52.596;13.320;2023-04-25T10:31:46;11.90;92.30
16867;DHT22;8550;52.596;13.320;2023-04-25T10:36:51;12.10;91.20
16867;DHT22;8550;52.596;13.320;2023-04-25T10:41:55;11.60;91.40
16867;DHT22;8550;52.596;13.320;2023-04-25T10:47:00;12.00;91.20
16867;DHT22;8550;52.596;13.320;2023-04-25T10:52:24;12.10;90.20
16867;DHT22;8550;52.596;13.320;2023-04-25T10:57:40;13.00;88.70
16867;DHT22;8550;52.596;13.320;2023-04-25T11:02:45;13.50;86.10
16867;DHT22;8550;52.596;13.320;2023-04-25T11:07:50;12.40;87.80
16867;DHT22;8550;52.596;13.320;2023-04-25T11:12:53;11.20;90.00
16867;DHT22;8550;52.596;13.320;2023-04-25T11:17:57;11.10;90.70
16867;DHT22;8550;52.596;13.320;2023-04-25T11:22:59;10.90;89.20
16867;DHT22;8550;52.596;13.320;2023-04-25T11:28:02;11.00;90.30
16867;DHT22;8550;52.596;13.320;2023-04-25T11:33:06;11.50;86.40
16867;DHT22;8550;52.596;13.320;2023-04-25T11:38:08;11.50;84.90
16867;DHT22;8550;52.596;13.320;2023-04-25T11:43:10;11.70;85.10
16867;DHT22;8550;52.596;13.320;2023-04-25T11:48:14;11.40;86.30
16867;DHT22;8550;52.596;13.320;2023-04-25T11:53:18;11.80;86.60
16867;DHT22;8550;52.596;13.320;2023-04-25T11:58:19;12.00;88.30
16867;DHT22;8550;52.596;13.320;2023-04-25T12:03:23;12.30;83.80
16867;DHT22;8550;52.596;13.320;2023-04-25T12:08:28;12.40;83.40
16867;DHT22;8550;52.596;13.320;2023-04-25T12:13:31;11.70;86.00
16867;DHT22;8550;52.596;13.320;2023-04-25T12:18:35;12.00;86.60
16867;DHT22;8550;52.596;13.320;2023-04-25T12:23:39;12.00;84.90
16867;DHT22;8550;52.596;13.320;2023-04-25T12:28:45;13.30;81.80
16867;DHT22;8550;52.596;13.320;2023-04-25T12:33:49;13.20;81.40
16867;DHT22;8550;52.596;13.320;2023-04-25T12:38:51;12.00;82.60
16867;DHT22;8550;52.596;13.320;2023-04-25T12:43:52;11.50;85.20
16867;DHT22;8550;52.596;13.320;2023-04-25T12:48:56;11.50;87.30
16867;DHT22;8550;52.596;13.320;2023-04-25T12:53:58;11.70;85.40
16867;DHT22;8550;52.596;13.320;2023-04-25T12:59:00;11.80;84.30
16867;DHT22;8550;52.596;13.320;2023-04-25T13:04:04;12.30;80.80
16867;DHT22;8550;52.596;13.320;2023-04-25T13:09:06;15.40;74.60
16867;DHT22;8550;52.596;13.320;2023-04-25T13:14:09;16.00;64.30
16867;DHT22;8550;52.596;13.320;2023-04-25T13:19:13;13.90;70.40
16867;DHT22;8550;52.596;13.320;2023-04-25T13:24:15;12.30;76.30
16867;DHT22;8550;52.596;13.320;2023-04-25T13:29:17;11.30;81.40
16867;DHT22;8550;52.596;13.320;2023-04-25T13:34:24;11.20;83.20
16867;DHT22;8550;52.596;13.320;2023-04-25T13:39:26;11.30;84.60
16867;DHT22;8550;52.596;13.320;2023-04-25T13:44:28;11.20;85.90
16867;DHT22;8550;52.596;13.320;2023-04-25T13:49:32;11.20;86.70
16867;DHT22;8550;52.596;13.320;2023-04-25T13:54:33;11.80;86.90
16867;DHT22;8550;52.596;13.320;2023-04-25T13:59:35;12.50;83.10
16867;DHT22;8550;52.596;13.320;2023-04-25T14:04:40;12.80;81.40
16867;DHT22;8550;52.596;13.320;2023-04-25T14:09:43;12.20;82.80
16867;DHT22;8550;52.596;13.320;2023-04-25T14:14:45;11.80;84.00
16867;DHT22;8550;52.596;13.320;2023-04-25T14:19:49;11.50;85.60
16867;DHT22;8550;52.596;13.320;2023-04-25T14:24:51;11.60;87.40
16867;DHT22;8550;52.596;13.320;2023-04-25T14:29:53;11.70;85.00
16867;DHT22;8550;52.596;13.320;2023-04-25T14:34:56;11.50;85.70
16867;DHT22;8550;52.596;13.320;2023-04-25T14:39:58;11.50;87.00
16867;DHT22;8550;52.596;13.320;2023-04-25T14:45:08;11.10;88.60
16867;DHT22;8550;52.596;13.320;2023-04-25T14:50:11;10.70;90.20
16867;DHT22;8550;52.596;13.320;2023-04-25T14:55:13;10.70;91.10
16867;DHT22;8550;52.596;13.320;2023-04-25T15:00:16;10.50;91.20
16867;DHT22;8550;52.596;13.320;2023-04-25T15:05:21;10.20;92.10
16867;DHT22;8550;52.596;13.320;2023-04-25T15:10:23;10.20;92.70
16867;DHT22;8550;52.596;13.320;2023-04-25T15:15:25;10.50;92.00
16867;DHT22;8550;52.596;13.320;2023-04-25T15:20:28;10.90;91.20
16867;DHT22;8550;52.596;13.320;2023-04-25T15:25:30;11.10;89.00
16867;DHT22;8550;52.596;13.320;2023-04-25T15:30:32;11.90;87.10
16867;DHT22;8550;52.596;13.320;2023-04-25T15:35:36;11.80;85.10
16867;DHT22;8550;52.596;13.320;2023-04-25T15:40:38;11.70;84.10
16867;DHT22;8550;52.596;13.320;2023-04-25T15:45:40;12.10;85.00
16867;DHT22;8550;52.596;13.320;2023-04-25T15:50:43;11.70;86.30
16867;DHT22;8550;52.596;13.320;2023-04-25T15:55:45;11.40;87.90
16867;DHT22;8550;52.596;13.320;2023-04-25T16:00:48;11.00;88.20
16867;DHT22;8550;52.596;13.320;2023-04-25T16:05:52;11.00;90.20
16867;DHT22;8550;52.596;13.320;2023-04-25T16:10:54;10.80;89.90
16867;DHT22;8550;52.596;13.320;2023-04-25T16:15:57;10.70;89.20
16867;DHT22;8550;52.596;13.320;2023-04-25T16:21:00;10.40;88.00
16867;DHT22;8550;52.596;13.320;2023-04-25T16:26:02;10.30;88.40
16867;DHT22;8550;52.596;13.320;2023-04-25T16:31:04;10.20;86.20
16867;DHT22;8550;52.596;13.320;2023-04-25T16:36:08;10.00;85.40
16867;DHT22;8550;52.596;13.320;2023-04-25T16:41:12;10.20;87.10
16867;DHT22;8550;52.596;13.320;2023-04-25T16:46:14;10.50;86.40
16867;DHT22;8550;52.596;13.320;2023-04-25T16:51:20;10.90;86.40
16867;DHT22;8550;52.596;13.320;2023-04-25T16:56:22;11.30;85.10
16867;DHT22;8550;52.596;13.320;2023-04-25T17:01:24;11.80;83.30
16867;DHT22;8550;52.596;13.320;2023-04-25T17:06:27;11.30;84.70
16867;DHT22;8550;52.596;13.320;2023-04-25T17:11:29;10.50;88.70
16867;DHT22;8550;52.596;13.320;2023-04-25T17:16:35;10.60;89.90
16867;DHT22;8550;52.596;13.320;2023-04-25T17:21:41;10.50;91.00
16867;DHT22;8550;52.596;13.320;2023-04-25T17:26:43;10.10;90.90
16867;DHT22;8550;52.596;13.320;2023-04-25T17:31:45;10.00;91.50
16867;DHT22;8550;52.596;13.320;2023-04-25T17:36:48;9.80;92.40
16867;DHT22;8550;52.596;13.320;2023-04-25T17:41:50;9.60;92.50
16867;DHT22;8550;52.596;13.320;2023-04-25T17:46:52;9.50;92.80
16867;DHT22;8550;52.596;13.320;2023-04-25T17:51:56;9.50;92.80
16867;DHT22;8550;52.596;13.320;2023-04-25T17:56:57;9.30;93.70
16867;DHT22;8550;52.596;13.320;2023-04-25T18:01:59;9.20;94.00
16867;DHT22;8550;52.596;13.320;2023-04-25T18:07:03;9.10;94.50
16867;DHT22;8550;52.596;13.320;2023-04-25T18:12:05;9.10;94.80
16867;DHT22;8550;52.596;13.320;2023-04-25T18:17:07;8.90;95.70
16867;DHT22;8550;52.596;13.320;2023-04-25T18:22:13;8.70;96.40
16867;DHT22;8550;52.596;13.320;2023-04-25T18:27:15;8.60;97.00
16867;DHT22;8550;52.596;13.320;2023-04-25T18:32:19;8.50;97.90
16867;DHT22;8550;52.596;13.320;2023-04-25T18:37:22;8.40;98.10
16867;DHT22;8550;52.596;13.320;2023-04-25T18:42:24;8.30;98.90
16867;DHT22;8550;52.596;13.320;2023-04-25T18:47:26;8.20;98.80
16867;DHT22;8550;52.596;13.320;2023-04-25T18:52:30;8.20;98.80
16867;DHT22;8550;52.596;13.320;2023-04-25T18:57:34;8.30;99.30
16867;DHT22;8550;52.596;13.320;2023-04-25T19:02:36;8.40;99.00
16867;DHT22;8550;52.596;13.320;2023-04-25T19:07:39;8.30;98.20
16867;DHT22;8550;52.596;13.320;2023-04-25T19:12:42;8.30;98.30
16867;DHT22;8550;52.596;13.320;2023-04-25T19:17:44;8.10;98.30
16867;DHT22;8550;52.596;13.320;2023-04-25T19:22:48;8.00;97.80
16867;DHT22;8550;52.596;13.320;2023-04-25T19:27:49;7.90;98.00
16867;DHT22;8550;52.596;13.320;2023-04-25T19:32:52;7.80;98.10
16867;DHT22;8550;52.596;13.320;2023-04-25T19:37:55;7.70;98.10
16867;DHT22;8550;52.596;13.320;2023-04-25T19:42:57;7.70;98.30
16867;DHT22;8550;52.596;13.320;2023-04-25T19:47:59;7.70;98.30
16867;DHT22;8550;52.596;13.320;2023-04-25T19:53:05;7.50;98.70
16867;DHT22;8550;52.596;13.320;2023-04-25T19:58:06;7.40;99.30
16867;DHT22;8550;52.596;13.320;2023-04-25T20:03:08;7.30;99.90
16867;DHT22;8550;52.596;13.320;2023-04-25T20:08:13;7.10;99.90
16867;DHT22;8550;52.596;13.320;2023-04-25T20:13:14;7.00;99.90
16867;DHT22;8550;52.596;13.320;2023-04-25T20:18:17;6.90;99.90
16867;DHT22;8550;52.596;13.320;2023-04-25T20:23:20;6.80;99.90
16867;DHT22;8550;52.596;13.320;2023-04-25T20:28:22;6.70;99.90
16867;DHT22;8550;52.596;13.320;2023-04-25T20:33:24;6.60;99.90
16867;DHT22;8550;52.596;13.320;2023-04-25T20:38:27;6.60;99.90
16867;DHT22;8550;52.596;13.320;2023-04-25T20:43:29;6.50;99.90
16867;DHT22;8550;52.596;13.320;2023-04-25T20:48:31;6.50;99.90
16867;DHT22;8550;52.596;13.320;2023-04-25T20:53:35;6.40;99.90
16867;DHT22;8550;52.596;13.320;2023-04-25T20:58:37;6.40;99.90
16867;DHT22;8550;52.596;13.320;2023-04-25T21:03:39;6.40;99.90
16867;DHT22;8550;52.596;13.320;2023-04-25T21:08:42;6.40;99.90
16867;DHT22;8550;52.596;13.320;2023-04-25T21:13:44;6.20;99.90
16867;DHT22;8550;52.596;13.320;2023-04-25T21:18:47;6.20;99.90
16867;DHT22;8550;52.596;13.320;2023-04-25T21:23:50;6.20;99.90
16867;DHT22;8550;52.596;13.320;2023-04-25T21:28:52;6.20;99.90
16867;DHT22;8550;52.596;13.320;2023-04-25T21:33:54;6.20;99.90
16867;DHT22;8550;52.596;13.320;2023-04-25T21:38:57;6.10;99.90
16867;DHT22;8550;52.596;13.320;2023-04-25T21:43:59;6.00;99.90
16867;DHT22;8550;52.596;13.320;2023-04-25T21:49:01;6.00;99.90
16867;DHT22;8550;52.596;13.320;2023-04-25T21:54:04;5.80;99.90
16867;DHT22;8550;52.596;13.320;2023-04-25T21:59:07;5.80;99.90
16867;DHT22;8550;52.596;13.320;2023-04-25T22:04:09;5.70;99.90
16867;DHT22;8550;52.596;13.320;2023-04-25T22:09:13;5.70;99.90
16867;DHT22;8550;52.596;13.320;2023-04-25T22:14:15;5.50;99.90
16867;DHT22;8550;52.596;13.320;2023-04-25T22:19:17;5.40;99.90
16867;DHT22;8550;52.596;13.320;2023-04-25T22:24:21;5.50;99.90
16867;DHT22;8550;52.596;13.320;2023-04-25T22:29:27;5.50;99.90
16867;DHT22;8550;52.596;13.320;2023-04-25T22:34:29;5.40;99.90
16867;DHT22;8550;52.596;13.320;2023-04-25T22:39:32;5.40;99.90
16867;DHT22;8550;52.596;13.320;2023-04-25T22:44:34;5.40;99.90
16867;DHT22;8550;52.596;13.320;2023-04-25T22:49:36;5.30;99.90
16867;DHT22;8550;52.596;13.320;2023-04-25T22:54:40;5.30;99.90
16867;DHT22;8550;52.596;13.320;2023-04-25T22:59:42;5.30;99.90
16867;DHT22;8550;52.596;13.320;2023-04-25T23:04:45;5.20;99.90
16867;DHT22;8550;52.596;13.320;2023-04-25T23:09:48;5.20;99.90
16867;DHT22;8550;52.596;13.320;2023-04-25T23:14:50;5.20;99.90
16867;DHT22;8550;52.596;13.320;2023-04-25T23:19:52;5.20;99.90
16867;DHT22;8550;52.596;13.320;2023-04-25T23:24:55;5.20;99.90
16867;DHT22;8550;52.596;13.320;2023-04-25T23:29:57;5.20;99.90
16867;DHT22;8550;52.596;13.320;2023-04-25T23:34:59;5.10;99.90
16867;DHT22;8550;52.596;13.320;2023-04-25T23:40:03;5.10;99.90
16867;DHT22;8550;52.596;13.320;2023-04-25T23:45:09;5.00;99.90
16867;DHT22;8550;52.596;13.320;2023-04-25T23:50:12;5.00;99.90
16867;DHT22;8550;52.596;13.320;2023-04-25T23:55:15;5.00;99.90
